createdAt,value
2019-03-21T00:02:13.131Z,100671.67
2019-03-21T00:04:45.950Z,100683.39
2019-03-21T00:07:17.243Z,100671.58
2019-03-21T00:10:06.912Z,100670.25
2019-03-21T00:12:37.337Z,100677.42
2019-03-21T00:15:10.884Z,100674.95
2019-03-21T00:17:44.613Z,100675.06
2019-03-21T00:20:17.381Z,100679.59
2019-03-21T00:22:47.825Z,100670.77
2019-03-21T00:25:21.321Z,100667.99
2019-03-21T00:27:51.756Z,100665.46
2019-03-21T00:30:26.518Z,100668.78
2019-03-21T00:32:57.348Z,100660.23
2019-03-21T00:35:27.805Z,100673.30
2019-03-21T00:37:58.246Z,100673.55
2019-03-21T00:40:34.548Z,100664.37
2019-03-21T00:43:07.594Z,100663.63
2019-03-21T00:45:38.078Z,100664.14
2019-03-21T00:48:11.264Z,100659.91
2019-03-21T00:50:42.481Z,100666.89
2019-03-21T00:53:13.043Z,100670.00
2019-03-21T00:55:54.890Z,100671.00
2019-03-21T00:58:25.376Z,100666.00
2019-03-21T01:01:01.664Z,100664.97
2019-03-21T01:03:32.189Z,100657.80
2019-03-21T01:06:07.183Z,100658.69
2019-03-21T01:08:37.622Z,100657.13
2019-03-21T01:11:08.086Z,100657.45
2019-03-21T01:13:40.038Z,100662.20
2019-03-21T01:16:10.512Z,100662.62
2019-03-21T01:18:43.581Z,100661.27
2019-03-21T01:21:15.634Z,100661.73
2019-03-21T01:23:48.435Z,100662.75
2019-03-21T01:26:18.899Z,100658.72
2019-03-21T01:28:49.955Z,100660.48
2019-03-21T01:31:20.543Z,100661.78
2019-03-21T01:33:51.049Z,100653.55
2019-03-21T01:36:23.872Z,100657.69
2019-03-21T01:38:55.198Z,100657.09
2019-03-21T01:41:25.620Z,100644.42
2019-03-21T01:43:56.391Z,100662.67
2019-03-21T01:46:28.367Z,100664.53
2019-03-21T01:48:58.865Z,100670.27
2019-03-21T01:51:30.157Z,100665.74
2019-03-21T01:54:02.354Z,100665.59
2019-03-21T01:56:32.816Z,100669.12
2019-03-21T01:59:03.253Z,100671.19
2019-03-21T02:01:35.223Z,100667.69
2019-03-21T02:04:06.062Z,100668.05
2019-03-21T02:06:37.563Z,100673.07
2019-03-21T02:09:08.812Z,100674.13
2019-03-21T02:11:39.267Z,100672.80
2019-03-21T02:14:09.761Z,100665.14
2019-03-21T02:16:40.173Z,100672.45
2019-03-21T02:19:10.672Z,100674.83
2019-03-21T02:21:41.144Z,100679.90
2019-03-21T02:24:13.544Z,100670.13
2019-03-21T02:26:43.988Z,100671.73
2019-03-21T02:29:14.413Z,100670.63
2019-03-21T02:34:30.389Z,100663.33
2019-03-21T02:37:01.214Z,100661.92
2019-03-21T02:39:31.647Z,100664.00
2019-03-21T02:42:02.535Z,100664.76
2019-03-21T02:44:32.991Z,100668.36
2019-03-21T02:47:03.438Z,100665.73
2019-03-21T02:49:33.851Z,100668.86
2019-03-21T02:52:04.261Z,100675.36
2019-03-21T02:54:34.790Z,100670.19
2019-03-21T02:57:05.268Z,100672.40
2019-03-21T02:59:35.730Z,100670.06
2019-03-21T03:02:15.396Z,100673.36
2019-03-21T03:04:46.085Z,100667.17
2019-03-21T03:07:16.550Z,100666.81
2019-03-21T03:09:46.979Z,100665.23
2019-03-21T03:12:17.505Z,100665.89
2019-03-21T03:14:48.000Z,100666.75
2019-03-21T03:17:18.461Z,100662.59
2019-03-21T03:19:48.971Z,100668.92
2019-03-21T03:22:19.514Z,100669.48
2019-03-21T03:24:50.264Z,100668.16
2019-03-21T03:27:20.764Z,100667.89
2019-03-21T03:29:51.243Z,100663.72
2019-03-21T03:32:21.874Z,100664.90
2019-03-21T03:34:52.455Z,100670.43
2019-03-21T03:37:22.899Z,100671.28
2019-03-21T03:39:53.430Z,100679.52
2019-03-21T03:42:23.904Z,100675.86
2019-03-21T03:44:54.504Z,100681.82
2019-03-21T03:47:24.993Z,100674.45
2019-03-21T03:49:55.426Z,100680.67
2019-03-21T03:52:25.897Z,100684.55
2019-03-21T03:54:56.340Z,100675.23
2019-03-21T03:57:26.867Z,100687.94
2019-03-21T03:59:58.863Z,100682.02
2019-03-21T04:02:29.327Z,100688.96
2019-03-21T04:04:59.828Z,100684.55
2019-03-21T04:07:30.299Z,100690.18
2019-03-21T04:10:01.132Z,100693.94
2019-03-21T04:12:32.926Z,100699.95
2019-03-21T04:15:10.995Z,100702.13
2019-03-21T04:17:41.477Z,100704.47
2019-03-21T04:20:51.517Z,100701.85
2019-03-21T04:23:14.889Z,100705.16
2019-03-21T04:25:51.512Z,100706.11
2019-03-21T04:28:21.988Z,100711.02
2019-03-21T04:31:14.113Z,100706.41
2019-03-21T04:33:53.957Z,100711.47
2019-03-21T04:36:24.470Z,100714.29
2019-03-21T04:38:56.772Z,100706.83
2019-03-21T04:41:30.263Z,100713.88
2019-03-21T04:44:00.763Z,100714.33
2019-03-21T04:46:31.217Z,100708.03
2019-03-21T04:49:02.055Z,100712.19
2019-03-21T04:51:37.115Z,100712.71
2019-03-21T04:54:12.065Z,100712.61
2019-03-21T04:56:47.513Z,100714.86
2019-03-21T04:59:29.249Z,100717.56
2019-03-21T05:02:03.256Z,100712.34
2019-03-21T05:04:35.606Z,100717.27
2019-03-21T05:07:06.083Z,100721.42
2019-03-21T05:09:38.121Z,100719.09
2019-03-21T05:12:08.679Z,100714.89
2019-03-21T05:14:43.706Z,100708.28
2019-03-21T05:17:14.183Z,100707.23
2019-03-21T05:19:44.950Z,100706.70
2019-03-21T05:22:17.235Z,100706.38
2019-03-21T05:24:47.705Z,100701.20
2019-03-21T05:27:18.502Z,100714.16
2019-03-21T05:29:52.983Z,100715.24
2019-03-21T05:32:23.484Z,100709.47
2019-03-21T05:34:53.882Z,100714.75
2019-03-21T05:37:26.671Z,100723.73
2019-03-21T05:39:57.121Z,100719.95
2019-03-21T05:42:29.052Z,100722.59
2019-03-21T05:45:10.109Z,100716.55
2019-03-21T05:47:40.629Z,100716.09
2019-03-21T05:50:15.091Z,100711.31
2019-03-21T05:52:45.870Z,100717.56
2019-03-21T05:55:16.599Z,100720.55
2019-03-21T05:57:48.161Z,100711.14
2019-03-21T06:00:38.738Z,100714.92
2019-03-21T06:03:15.383Z,100707.41
2019-03-21T06:05:54.101Z,100707.35
2019-03-21T06:08:27.930Z,100706.67
2019-03-21T06:11:03.432Z,100707.56
2019-03-21T06:13:36.072Z,100697.15
2019-03-21T06:16:10.887Z,100704.50
2019-03-21T06:18:56.286Z,100700.59
2019-03-21T06:21:41.699Z,100696.91
2019-03-21T06:24:27.339Z,100693.20
2019-03-21T06:27:14.351Z,100699.14
2019-03-21T06:29:43.390Z,100696.66
2019-03-21T06:32:14.046Z,100694.25
2019-03-21T06:34:44.626Z,100683.41
2019-03-21T06:37:23.022Z,100679.77
2019-03-21T06:39:55.074Z,100679.44
2019-03-21T06:42:25.813Z,100674.02
2019-03-21T06:44:56.289Z,100677.61
2019-03-21T06:47:32.571Z,100678.44
2019-03-21T06:50:03.797Z,100670.81
2019-03-21T06:52:34.285Z,100669.97
2019-03-21T06:55:05.414Z,100678.38
2019-03-21T06:57:52.165Z,100675.89
2019-03-21T07:00:21.957Z,100675.50
2019-03-21T07:02:52.490Z,100676.47
2019-03-21T07:05:22.940Z,100675.92
2019-03-21T07:07:53.443Z,100675.55
2019-03-21T07:10:23.815Z,100677.72
2019-03-21T07:12:54.286Z,100673.52
2019-03-21T07:15:24.846Z,100668.69
2019-03-21T07:17:55.378Z,100664.20
2019-03-21T07:20:25.880Z,100663.03
2019-03-21T07:22:56.356Z,100663.44
2019-03-21T07:25:42.320Z,100658.26
2019-03-21T07:28:14.365Z,100658.87
2019-03-21T07:30:48.378Z,100652.18
2019-03-21T07:33:25.247Z,100658.64
2019-03-21T07:35:59.846Z,100650.89
2019-03-21T07:38:30.310Z,100654.20
2019-03-21T07:41:00.718Z,100653.29
2019-03-21T07:46:49.112Z,100654.83
2019-03-21T07:49:22.247Z,100650.89
2019-03-21T07:51:52.770Z,100655.13
2019-03-21T07:54:23.235Z,100648.53
2019-03-21T07:56:53.735Z,100645.50
2019-03-21T07:59:24.182Z,100644.56
2019-03-21T08:01:54.615Z,100640.86
2019-03-21T08:04:25.087Z,100636.02
2019-03-21T08:07:13.666Z,100639.80
2019-03-21T08:09:44.318Z,100640.72
2019-03-21T08:12:16.543Z,100626.56
2019-03-21T08:14:50.247Z,100619.61
2019-03-21T08:17:21.824Z,100629.17
2019-03-21T08:19:52.361Z,100628.19
2019-03-21T08:22:23.164Z,100623.70
2019-03-21T08:24:53.669Z,100619.06
2019-03-21T08:27:27.818Z,100619.81
2019-03-21T08:29:58.398Z,100617.30
2019-03-21T08:32:32.003Z,100617.94
2019-03-21T08:35:05.779Z,100616.75
2019-03-21T08:37:36.296Z,100620.53
2019-03-21T08:40:07.961Z,100617.02
2019-03-21T08:42:38.535Z,100615.48
2019-03-21T08:45:09.082Z,100611.63
2019-03-21T08:47:39.666Z,100613.77
2019-03-21T08:50:11.917Z,100610.51
2019-03-21T08:52:44.230Z,100599.30
2019-03-21T08:55:17.378Z,100609.59
2019-03-21T08:57:56.305Z,100606.34
2019-03-21T09:00:33.977Z,100596.97
2019-03-21T09:03:00.610Z,100587.42
2019-03-21T09:05:41.503Z,100595.16
2019-03-21T09:08:11.967Z,100585.06
2019-03-21T09:10:42.985Z,100592.20
2019-03-21T09:13:13.440Z,100583.53
2019-03-21T09:15:46.842Z,100587.52
2019-03-21T09:18:17.464Z,100583.95
2019-03-21T09:20:47.990Z,100587.59
2019-03-21T09:23:18.595Z,100585.90
2019-03-21T09:25:51.339Z,100578.34
2019-03-21T09:28:21.558Z,100569.39
2019-03-21T09:30:56.381Z,100576.81
2019-03-21T09:33:24.363Z,100584.08
2019-03-21T09:35:54.935Z,100582.25
2019-03-21T09:38:25.586Z,100577.20
2019-03-21T09:40:56.141Z,100568.48
2019-03-21T09:43:26.976Z,100577.78
2019-03-21T09:45:58.252Z,100577.49
2019-03-21T09:51:41.410Z,100566.36
2019-03-21T09:54:13.466Z,100564.36
2019-03-21T09:56:51.277Z,100557.00
2019-03-21T09:59:28.054Z,100566.98
2019-03-21T10:01:58.696Z,100572.58
2019-03-21T10:04:29.112Z,100564.45
2019-03-21T10:07:00.904Z,100563.23
2019-03-21T10:09:31.511Z,100546.66
2019-03-21T10:12:02.417Z,100559.39
2019-03-21T10:14:35.069Z,100545.80
2019-03-21T10:17:05.684Z,100545.30
2019-03-21T10:22:47.149Z,100533.21
2019-03-21T10:25:17.640Z,100533.67
2019-03-21T10:27:48.210Z,100526.33
2019-03-21T10:30:43.495Z,100520.62
2019-03-21T10:33:15.034Z,100522.03
2019-03-21T10:35:45.546Z,100505.34
2019-03-21T10:38:27.876Z,100504.27
2019-03-21T10:41:17.942Z,100502.23
2019-03-21T10:43:52.880Z,100492.14
2019-03-21T10:46:26.624Z,100489.83
2019-03-21T10:49:03.994Z,100482.84
2019-03-21T10:51:40.358Z,100473.55
2019-03-21T10:54:13.848Z,100475.59
2019-03-21T10:56:44.432Z,100473.88
2019-03-21T11:02:28.732Z,100469.55
2019-03-21T11:05:00.422Z,100456.61
2019-03-21T11:07:31.038Z,100456.33
2019-03-21T11:10:11.523Z,100451.59
2019-03-21T11:12:48.953Z,100451.22
2019-03-21T11:15:22.458Z,100441.07
2019-03-21T11:17:54.707Z,100445.31
2019-03-21T11:20:35.862Z,100441.95
2019-03-21T11:23:08.803Z,100436.87
2019-03-21T11:25:43.777Z,100436.05
2019-03-21T11:28:14.289Z,100436.34
2019-03-21T11:30:45.060Z,100432.14
2019-03-21T11:33:15.855Z,100428.26
2019-03-21T11:35:46.433Z,100433.08
2019-03-21T11:38:22.444Z,100436.39
2019-03-21T11:40:54.191Z,100436.47
2019-03-21T11:43:24.757Z,100420.73
2019-03-21T11:45:55.509Z,100424.59
2019-03-21T11:48:26.213Z,100420.82
2019-03-21T11:50:58.327Z,100414.09
2019-03-21T11:53:28.950Z,100419.77
2019-03-21T11:56:04.129Z,100405.86
2019-03-21T11:58:36.644Z,100406.98
2019-03-21T12:01:10.340Z,100407.05
2019-03-21T12:03:42.628Z,100404.23
2019-03-21T12:06:16.112Z,100407.56
2019-03-21T12:08:48.665Z,100392.89
2019-03-21T12:11:21.140Z,100379.73
2019-03-21T12:13:51.298Z,100400.70
2019-03-21T12:16:21.922Z,100398.95
2019-03-21T12:18:57.588Z,100381.94
2019-03-21T12:21:28.206Z,100389.53
2019-03-21T12:24:04.101Z,100382.84
2019-03-21T12:26:51.898Z,100380.80
2019-03-21T12:29:26.271Z,100377.84
2019-03-21T12:32:01.199Z,100373.25
2019-03-21T12:34:33.282Z,100367.86
2019-03-21T12:37:08.810Z,100371.34
2019-03-21T12:39:45.643Z,100356.02
2019-03-21T12:42:19.004Z,100358.88
2019-03-21T12:44:49.689Z,100362.15
2019-03-21T12:47:30.815Z,100361.39
2019-03-21T12:49:52.676Z,100364.27
2019-03-21T12:52:45.943Z,100358.42
2019-03-21T12:55:13.220Z,100350.00
2019-03-21T12:57:49.046Z,100365.38
2019-03-21T13:00:37.311Z,100352.37
2019-03-21T13:03:09.327Z,100354.39
2019-03-21T13:05:40.143Z,100338.15
2019-03-21T13:08:12.344Z,100338.84
2019-03-21T13:10:42.935Z,100347.75
2019-03-21T13:13:13.948Z,100341.20
2019-03-21T13:15:47.456Z,100334.45
2019-03-21T13:18:17.921Z,100338.08
2019-03-21T13:20:48.433Z,100337.48
2019-03-21T13:23:20.551Z,100337.69
2019-03-21T13:28:47.778Z,100340.38
2019-03-21T13:31:18.410Z,100334.12
2019-03-21T13:33:48.946Z,100336.80
2019-03-21T13:36:21.217Z,100332.62
2019-03-21T13:38:51.660Z,100326.50
2019-03-21T13:41:24.010Z,100330.44
2019-03-21T13:43:54.978Z,100337.99
2019-03-21T13:46:28.063Z,100333.09
2019-03-21T13:49:06.014Z,100335.21
2019-03-21T13:51:38.897Z,100333.53
2019-03-21T13:54:09.471Z,100334.55
2019-03-21T13:56:40.317Z,100321.48
2019-03-21T13:59:12.433Z,100319.48
2019-03-21T14:01:42.996Z,100320.34
2019-03-21T14:04:14.547Z,100326.56
2019-03-21T14:06:50.124Z,100310.73
2019-03-21T14:09:29.839Z,100317.09
2019-03-21T14:12:01.394Z,100320.05
2019-03-21T14:14:33.473Z,100321.01
2019-03-21T14:17:04.034Z,100314.09
2019-03-21T14:19:42.897Z,100316.02
2019-03-21T14:22:14.789Z,100319.83
2019-03-21T14:24:46.841Z,100316.58
2019-03-21T14:27:19.388Z,100313.62
2019-03-21T14:30:00.780Z,100317.39
2019-03-21T14:32:22.299Z,100324.86
2019-03-21T14:34:59.539Z,100330.22
2019-03-21T14:37:31.849Z,100328.03
2019-03-21T14:40:07.466Z,100331.40
2019-03-21T14:42:38.072Z,100330.37
2019-03-21T14:45:10.435Z,100330.48
2019-03-21T14:47:40.963Z,100319.91
2019-03-21T14:50:17.145Z,100329.91
2019-03-21T14:52:47.749Z,100327.95
2019-03-21T14:55:20.284Z,100323.07
2019-03-21T14:57:50.824Z,100327.27
2019-03-21T15:02:57.108Z,100317.36
2019-03-21T15:05:27.729Z,100324.49
2019-03-21T15:07:58.263Z,100331.00
2019-03-21T15:10:30.898Z,100327.27
2019-03-21T15:13:02.229Z,100338.77
2019-03-21T15:15:34.406Z,100339.47
2019-03-21T15:18:04.839Z,100334.63
2019-03-21T15:20:36.659Z,100342.27
2019-03-21T15:23:10.576Z,100340.51
2019-03-21T15:25:42.801Z,100328.97
2019-03-21T15:28:13.503Z,100341.20
2019-03-21T15:30:44.019Z,100341.57
2019-03-21T15:33:14.507Z,100342.30
2019-03-21T15:35:45.135Z,100346.86
2019-03-21T15:38:16.698Z,100352.67
2019-03-21T15:40:47.203Z,100351.11
2019-03-21T15:43:17.663Z,100357.14
2019-03-21T15:45:48.342Z,100343.88
2019-03-21T15:48:20.976Z,100350.55
2019-03-21T15:51:03.547Z,100347.04
2019-03-21T15:53:23.975Z,100349.84
2019-03-21T15:55:56.046Z,100349.86
2019-03-21T16:00:58.836Z,100347.69
2019-03-21T16:03:55.067Z,100348.78
2019-03-21T16:06:30.328Z,100350.05
2019-03-21T16:09:14.097Z,100344.39
2019-03-21T16:15:01.788Z,100348.24
2019-03-21T16:18:26.808Z,100347.48
2019-03-21T16:20:58.871Z,100350.95
2019-03-21T16:23:33.811Z,100355.17
2019-03-21T16:26:04.535Z,100361.24
2019-03-21T16:28:35.080Z,100359.34
2019-03-21T16:31:11.839Z,100350.81
2019-03-21T16:33:44.131Z,100361.33
2019-03-21T16:36:19.136Z,100359.00
2019-03-21T16:38:51.318Z,100356.19
2019-03-21T16:41:24.597Z,100368.27
2019-03-21T16:44:07.289Z,100373.72
2019-03-21T16:49:42.495Z,100379.47
2019-03-21T17:06:02.382Z,100386.06
2019-03-21T17:08:33.871Z,100396.68
2019-03-21T17:11:56.478Z,100392.43
2019-03-21T17:14:03.093Z,100392.25
2019-03-21T17:16:45.906Z,100404.86
2019-03-21T17:19:37.083Z,100405.88
2019-03-21T17:22:08.867Z,100412.38
2019-03-21T17:24:44.286Z,100411.55
2019-03-21T18:31:48.607Z,100496.11
2019-03-21T18:44:38.570Z,100488.52
2019-03-21T18:50:58.065Z,100501.64
2019-03-21T18:57:19.713Z,100503.20
2019-03-21T19:14:06.024Z,100505.23
2019-03-21T19:26:58.972Z,100522.81
2019-03-21T19:29:44.963Z,100524.52
2019-03-21T20:08:45.718Z,100523.23
2019-03-21T20:53:36.893Z,100521.20
2019-03-21T20:56:14.268Z,100523.92
2019-03-21T20:58:58.091Z,100518.91
2019-03-21T21:04:36.543Z,100520.63
2019-03-21T21:07:10.232Z,100515.29
2019-03-21T21:09:43.758Z,100512.17
2019-03-21T21:12:14.595Z,100515.92
2019-03-21T21:15:01.681Z,100515.27
2019-03-21T21:17:37.434Z,100513.59
2019-03-21T21:20:10.089Z,100507.35
2019-03-21T21:22:48.560Z,100503.38
2019-03-21T21:25:18.578Z,100506.19
2019-03-21T21:27:51.163Z,100502.78
2019-03-21T21:30:24.573Z,100507.72
2019-03-21T21:32:58.636Z,100504.14
2019-03-21T21:35:31.345Z,100504.09
2019-03-21T21:38:04.955Z,100511.45
2019-03-21T21:40:43.912Z,100512.83
2019-03-21T21:43:19.583Z,100514.34
2019-03-21T21:45:51.613Z,100511.08
2019-03-21T21:48:22.065Z,100501.87
2019-03-21T21:50:57.552Z,100500.46
2019-03-21T21:53:28.475Z,100503.14
2019-03-21T21:56:17.020Z,100496.44
2019-03-21T21:58:38.463Z,100491.44
2019-03-21T22:01:09.952Z,100491.63
2019-03-21T22:03:41.425Z,100495.55
2019-03-21T22:06:12.780Z,100489.50
2019-03-21T22:08:48.674Z,100489.11
2019-03-21T22:11:19.215Z,100499.38
2019-03-21T22:13:49.735Z,100504.30
2019-03-21T22:16:21.433Z,100499.55
2019-03-21T22:18:55.046Z,100504.09
2019-03-21T22:21:25.464Z,100508.45
2019-03-21T22:24:00.054Z,100506.55
2019-03-21T22:26:32.047Z,100498.44
2019-03-21T22:29:06.224Z,100506.55
2019-03-21T22:31:46.441Z,100508.06
2019-03-21T22:34:20.033Z,100506.19
2019-03-21T22:36:52.116Z,100511.34
2019-03-21T22:39:22.587Z,100502.68
2019-03-21T22:41:54.607Z,100508.53
2019-03-21T22:44:25.660Z,100512.03
2019-03-21T22:46:56.122Z,100500.89
2019-03-21T22:49:26.351Z,100510.13
2019-03-21T22:51:58.838Z,100508.42
2019-03-21T22:54:30.221Z,100506.99
2019-03-21T22:57:01.778Z,100504.00
2019-03-21T22:59:33.243Z,100503.23
2019-03-21T23:02:03.690Z,100500.61
2019-03-21T23:04:35.069Z,100490.80
2019-03-21T23:07:06.657Z,100501.25
2019-03-21T23:09:38.617Z,100498.61
2019-03-21T23:12:09.053Z,100495.83
2019-03-21T23:14:39.616Z,100496.30
2019-03-21T23:17:10.063Z,100495.16
2019-03-21T23:19:42.375Z,100497.11
2019-03-21T23:22:13.973Z,100498.63
2019-03-21T23:24:44.519Z,100487.76
2019-03-21T23:27:17.208Z,100503.95
2019-03-21T23:29:47.672Z,100502.12
2019-03-21T23:32:18.079Z,100489.08
2019-03-21T23:34:50.781Z,100497.00
2019-03-21T23:37:22.410Z,100497.94
2019-03-21T23:39:54.413Z,100499.19
2019-03-21T23:42:25.001Z,100493.50
2019-03-21T23:44:56.452Z,100491.31
2019-03-21T23:47:26.897Z,100494.48
2019-03-21T23:49:57.396Z,100486.86
2019-03-21T23:52:27.941Z,100482.59
2019-03-21T23:54:58.369Z,100480.03
2019-03-21T23:57:28.797Z,100471.78
2019-03-21T23:59:59.281Z,100476.09
